Time;durP1;ratioP1;P1;durP2;ratioP2;P2;SDS_P1;SDS_P2;PMS_P1;PMS_P2;Temp;Humidity;BMP_temperature;BMP_pressure;BME280_temperature;BME280_humidity;BME280_pressure;Samples;Min_cycle;Max_cycle;Signal;HPM_P1;HPM_P2
2022/08/27 00:02:07;;;;;;;;;;;;;;;24.26;62.51;153756.94;1651799;85;21104;-62
2022/08/27 00:04:34;;;;;;;;;;;;;;;24.20;62.81;153741.19;1655946;84;20213;-62
2022/08/27 00:07:02;;;;;;;;;;;;;;;24.09;63.01;153712.41;1675550;85;20168;-72
2022/08/27 00:09:29;;;;;;;;;;;;;;;24.04;62.88;153700.61;1675621;85;20180;-72
2022/08/27 00:11:56;;;;;;;;;;;;;;;23.96;62.72;153679.64;1675496;85;20191;-71
2022/08/27 00:14:23;;;;;;;;;;;;;;;23.82;62.96;153644.30;1675505;85;21203;-70
2022/08/27 00:16:50;;;;;;;;;;;;;;;23.70;63.14;153615.47;1644971;87;20188;-70
2022/08/27 00:19:17;;;;;;;;;;;;;;;23.71;63.13;153618.09;1644932;87;20205;-70
2022/08/27 00:21:44;;;;;;;;;;;;;;;23.83;63.00;153646.91;1644972;86;20178;-71
2022/08/27 00:24:11;;;;;;;;;;;;;;;23.94;62.70;153674.41;1645012;87;20633;-71
2022/08/27 00:26:38;;;;;;;;;;;;;;;24.15;62.82;153729.44;1645147;86;21291;-71
2022/08/27 00:29:05;;;;;;;;;;;;;;;24.40;62.37;153790.95;1645007;86;20177;-71
2022/08/27 00:31:32;;;;;;;;;;;;;;;24.69;61.55;153865.61;1645541;87;20568;-71
2022/08/27 00:33:59;;;;;;;;;;;;;;;24.92;60.66;153922.02;1645017;87;20445;-72
2022/08/27 00:36:25;;;;;;;;;;;;;;;25.08;59.77;153963.89;1645316;87;20249;-73
2022/08/27 00:38:52;;;;;;;;;;;;;;;24.94;59.89;153927.25;1645223;87;21914;-72
2022/08/27 00:41:19;;;;;;;;;;;;;;;24.73;59.98;153874.80;1645097;87;20132;-72
2022/08/27 00:43:56;;;;;;;;;;;;;;;24.49;60.08;153814.56;1645361;87;20194;-72
2022/08/27 00:46:47;;;;;;;;;;;;;;;24.32;60.79;153771.36;1626170;87;20178;-70
2022/08/27 00:49:17;;;;;;;;;;;;;;;24.44;60.77;153801.47;1645100;87;20202;-60
2022/08/27 00:51:46;;;;;;;;;;;;;;;24.69;60.12;153865.61;1645257;87;21153;-61
2022/08/27 00:54:13;;;;;;;;;;;;;;;24.88;59.48;153914.16;1626469;86;20189;-61
2022/08/27 00:56:43;;;;;;;;;;;;;;;25.08;58.64;153963.89;1645158;87;20459;-61
2022/08/27 00:59:13;;;;;;;;;;;;;;;25.16;58.17;153984.88;1645032;87;20186;-61
2022/08/27 01:02:17;;;;;;;;;;;;;;;25.10;57.75;153969.17;1645317;86;20580;-61
2022/08/27 01:04:09;;;;;;;;;;;;;;;24.83;57.99;153899.73;1642110;87;21161;-61
2022/08/27 01:06:36;;;;;;;;;;;;;;;24.51;58.78;153819.78;1671664;85;20511;-61
2022/08/27 01:09:06;;;;;;;;;;;;;;;24.29;59.44;153764.78;1699228;84;20189;-61
2022/08/27 01:11:35;;;;;;;;;;;;;;;24.19;59.78;153738.58;1701160;84;20182;-61
2022/08/27 01:14:02;;;;;;;;;;;;;;;24.12;60.10;153720.25;1681817;85;20127;-72
2022/08/27 01:16:32;;;;;;;;;;;;;;;24.21;60.27;153742.53;1699343;84;22306;-71
2022/08/27 01:18:59;;;;;;;;;;;;;;;24.43;59.81;153798.86;1699179;84;20182;-69
2022/08/27 01:21:32;;;;;;;;;;;;;;;24.62;58.91;153847.30;1701330;84;20163;-70
2022/08/27 01:24:06;;;;;;;;;;;;;;;24.65;58.76;153855.14;1699005;83;20218;-72
2022/08/27 01:26:33;;;;;;;;;;;;;;;24.72;58.38;153872.19;1682152;85;20223;-71
2022/08/27 01:29:03;;;;;;;;;;;;;;;24.54;58.33;153827.64;1699155;83;21239;-71
2022/08/27 01:31:30;;;;;;;;;;;;;;;24.28;58.98;153760.84;1701258;83;20138;-72
2022/08/27 01:34:00;;;;;;;;;;;;;;;24.09;59.40;153712.41;1681790;85;20219;-71
2022/08/27 01:36:27;;;;;;;;;;;;;;;23.88;59.79;153661.33;1699410;84;20388;-71
2022/08/27 01:38:55;;;;;;;;;;;;;;;23.80;60.40;153639.06;1701133;84;35598;-72
2022/08/27 01:41:23;;;;;;;;;;;;;;;23.86;60.37;153654.75;1681189;84;21246;-71
2022/08/27 01:43:49;;;;;;;;;;;;;;;23.84;60.14;153649.53;1698897;84;20504;-61
2022/08/27 01:46:23;;;;;;;;;;;;;;;23.67;60.28;153607.62;1700564;84;20666;-60
2022/08/27 01:48:51;;;;;;;;;;;;;;;23.53;60.61;153570.95;1700284;83;20517;-61
2022/08/27 01:51:18;;;;;;;;;;;;;;;23.42;60.91;153544.81;1681366;85;20175;-61
2022/08/27 01:53:45;;;;;;;;;;;;;;;23.29;61.19;153510.77;1665227;85;21238;-60
2022/08/27 01:56:12;;;;;;;;;;;;;;;23.11;61.75;153464.92;1699335;83;20181;-73
2022/08/27 01:58:38;;;;;;;;;;;;;;;22.98;62.42;153433.50;1701408;84;20466;-72
2022/08/27 02:01:08;;;;;;;;;;;;;;;23.01;62.46;153440.06;1681622;85;20479;-72
2022/08/27 02:03:36;;;;;;;;;;;;;;;23.04;62.23;153447.91;1699511;84;20211;-72
2022/08/27 02:06:04;;;;;;;;;;;;;;;23.05;62.12;153450.52;1700416;83;21226;-72
2022/08/27 02:08:31;;;;;;;;;;;;;;;23.08;62.06;153458.36;1699746;83;20168;-62
2022/08/27 02:10:58;;;;;;;;;;;;;;;23.04;62.02;153447.91;1699194;84;20208;-61
2022/08/27 02:13:26;;;;;;;;;;;;;;;23.01;62.06;153440.06;1699460;84;20173;-61
2022/08/27 02:15:54;;;;;;;;;;;;;;;22.95;62.06;153425.66;1699539;83;20469;-61
2022/08/27 02:18:22;;;;;;;;;;;;;;;22.84;62.50;153396.91;1699316;84;21094;-62
2022/08/27 02:20:49;;;;;;;;;;;;;;;22.81;62.76;153390.34;1699282;83;20308;-62
2022/08/27 02:23:16;;;;;;;;;;;;;;;22.77;62.97;153378.55;1699235;83;20228;-62
2022/08/27 02:25:46;;;;;;;;;;;;;;;22.73;63.16;153369.42;1699403;84;20472;-73
2022/08/27 02:28:12;;;;;;;;;;;;;;;22.71;63.31;153364.19;1699505;84;20212;-71
2022/08/27 02:30:39;;;;;;;;;;;;;;;22.68;63.31;153356.34;1699639;84;20719;-72
2022/08/27 02:33:08;;;;;;;;;;;;;;;22.64;63.45;153345.84;1699225;83;20180;-72
2022/08/27 02:35:38;;;;;;;;;;;;;;;22.59;63.81;153334.11;1699239;83;20422;-61
2022/08/27 02:38:06;;;;;;;;;;;;;;;22.53;64.07;153319.70;1699271;84;20231;-60
2022/08/27 02:40:33;;;;;;;;;;;;;;;22.50;64.30;153311.88;1699327;83;20168;-61
2022/08/27 02:43:00;;;;;;;;;;;;;;;22.46;64.58;153301.36;1699100;83;22056;-61
2022/08/27 02:45:27;;;;;;;;;;;;;;;22.40;64.92;153285.62;1699315;83;20450;-61
2022/08/27 02:47:54;;;;;;;;;;;;;;;22.39;64.96;153283.02;1699028;84;20223;-61
2022/08/27 02:50:20;;;;;;;;;;;;;;;22.34;65.01;153271.28;1699017;84;20183;-72
2022/08/27 02:52:47;;;;;;;;;;;;;;;22.32;65.07;153267.33;1699670;84;20571;-71
2022/08/27 02:55:15;;;;;;;;;;;;;;;22.38;64.71;153281.73;1699096;83;22110;-71
2022/08/27 02:57:42;;;;;;;;;;;;;;;22.45;64.33;153298.75;1699189;84;20192;-71
2022/08/27 03:00:11;;;;;;;;;;;;;;;22.48;62.85;153305.31;1699089;83;20176;-71
2022/08/27 03:02:37;;;;;;;;;;;;;;;22.46;62.46;153301.36;1699358;84;20917;-61
2022/08/27 03:05:05;;;;;;;;;;;;;;;22.43;62.38;153293.47;1698154;84;20203;-71
2022/08/27 03:07:32;;;;;;;;;;;;;;;22.41;61.16;153289.58;1706127;83;21918;-70
2022/08/27 03:09:59;;;;;;;;;;;;;;;22.42;60.75;153292.19;1699199;84;20146;-72
2022/08/27 03:12:27;;;;;;;;;;;;;;;22.40;60.33;153285.62;1706218;84;20159;-62
2022/08/27 03:14:55;;;;;;;;;;;;;;;22.41;60.18;153288.25;1698946;84;20194;-62
2022/08/27 03:20:10;;;;;;;;;;;;;;;22.37;59.91;153277.78;1699203;83;21045;-70
2022/08/27 03:22:38;;;;;;;;;;;;;;;22.34;59.74;153271.28;1706831;84;20161;-62
2022/08/27 03:25:07;;;;;;;;;;;;;;;22.30;59.57;153262.11;1698754;84;20197;-62
2022/08/27 03:27:33;;;;;;;;;;;;;;;22.30;59.34;153262.11;1699654;84;20438;-70
2022/08/27 03:30:05;;;;;;;;;;;;;;;22.26;59.25;153251.66;1706172;83;20210;-70
2022/08/27 03:32:32;;;;;;;;;;;;;;;22.17;59.40;153229.41;1705797;84;21728;-70
2022/08/27 03:34:59;;;;;;;;;;;;;;;22.12;59.51;153215.02;1699429;84;20202;-69
2022/08/27 03:37:26;;;;;;;;;;;;;;;22.12;59.39;153215.02;1706259;84;20468;-70
2022/08/27 03:39:52;;;;;;;;;;;;;;;22.11;59.14;153212.41;1699219;84;20415;-70
2022/08/27 03:42:19;;;;;;;;;;;;;;;22.06;58.89;153199.34;1706027;84;20205;-62
2022/08/27 03:44:46;;;;;;;;;;;;;;;22.01;58.92;153188.89;1698367;84;21891;-62
2022/08/27 03:47:13;;;;;;;;;;;;;;;22.03;58.47;153192.78;1705500;84;20229;-63
2022/08/27 03:49:39;;;;;;;;;;;;;;;22.02;58.39;153191.50;1698522;84;20210;-62
2022/08/27 03:52:06;;;;;;;;;;;;;;;22.04;58.38;153196.72;1705565;84;20427;-63
2022/08/27 03:54:34;;;;;;;;;;;;;;;22.10;58.30;153209.80;1706245;84;20174;-61
2022/08/27 03:57:02;;;;;;;;;;;;;;;22.19;57.88;153233.31;1699174;84;21939;-63
2022/08/27 03:59:29;;;;;;;;;;;;;;;22.22;57.59;153241.20;1706390;83;20196;-63
2022/08/27 04:01:56;;;;;;;;;;;;;;;22.23;57.37;153243.81;1699442;83;20226;-63
2022/08/27 04:04:23;;;;;;;;;;;;;;;22.26;57.24;153251.66;1706200;84;20450;-62
2022/08/27 04:06:51;;;;;;;;;;;;;;;22.33;57.09;153268.67;1704138;84;20503;-61
2022/08/27 04:09:18;;;;;;;;;;;;;;;22.45;56.95;153300.03;1704759;84;23166;-62
2022/08/27 04:11:45;;;;;;;;;;;;;;;22.59;56.38;153335.39;1704837;84;20172;-62
2022/08/27 04:14:12;;;;;;;;;;;;;;;22.70;55.83;153361.58;1704829;83;20183;-62
2022/08/27 04:16:39;;;;;;;;;;;;;;;22.71;55.65;153364.19;1705338;82;20132;-62
2022/08/27 04:19:06;;;;;;;;;;;;;;;22.71;55.58;153364.19;1704875;83;20180;-62
2022/08/27 04:21:34;;;;;;;;;;;;;;;22.74;55.00;153372.03;1705125;84;21234;-62
2022/08/27 04:24:01;;;;;;;;;;;;;;;22.74;55.35;153372.03;1702283;84;20148;-62
2022/08/27 04:26:28;;;;;;;;;;;;;;;22.85;55.27;153399.50;1702329;84;20137;-62
2022/08/27 04:28:56;;;;;;;;;;;;;;;22.97;55.08;153430.87;1702050;84;20168;-62
2022/08/27 04:31:24;;;;;;;;;;;;;;;23.03;55.06;153445.28;1702051;84;20168;-62
2022/08/27 04:33:52;;;;;;;;;;;;;;;23.14;54.96;153474.11;1702333;84;21242;-62
2022/08/27 04:36:19;;;;;;;;;;;;;;;23.33;54.61;153521.27;1702163;84;20485;-62
2022/08/27 04:38:45;;;;;;;;;;;;;;;23.50;53.91;153564.44;1702210;84;20501;-62
2022/08/27 04:41:18;;;;;;;;;;;;;;;23.69;53.34;153611.58;1702008;84;20711;-62
2022/08/27 04:43:46;;;;;;;;;;;;;;;23.84;52.44;153649.53;1702192;84;20231;-62
2022/08/27 04:46:13;;;;;;;;;;;;;;;23.69;52.12;153612.86;1702241;83;21261;-70
2022/08/27 04:48:39;;;;;;;;;;;;;;;23.43;52.67;153546.09;1702354;83;20179;-69
2022/08/27 04:51:05;;;;;;;;;;;;;;;23.31;52.82;153516.00;1702173;83;20204;-69
2022/08/27 04:53:34;;;;;;;;;;;;;;;23.31;52.77;153516.00;1702534;84;20291;-69
2022/08/27 04:56:01;;;;;;;;;;;;;;;23.35;52.68;153526.50;1702334;83;20483;-62
2022/08/27 04:58:28;;;;;;;;;;;;;;;23.48;52.45;153557.88;1676455;84;20561;-63
2022/08/27 05:01:00;;;;;;;;;;;;;;;23.61;52.02;153591.94;1702178;83;20208;-63
2022/08/27 05:03:25;;;;;;;;;;;;;;;23.80;51.67;153639.06;1701842;84;20168;-62
2022/08/27 05:05:52;;;;;;;;;;;;;;;23.98;51.09;153684.88;1699654;83;20198;-62
2022/08/27 05:08:18;;;;;;;;;;;;;;;24.17;50.55;153733.34;1694922;84;20180;-69
2022/08/27 05:10:47;;;;;;;;;;;;;;;24.39;50.23;153788.34;1694943;84;21128;-69
2022/08/27 05:13:14;;;;;;;;;;;;;;;24.58;49.25;153838.11;1695128;84;20172;-69
2022/08/27 05:15:41;;;;;;;;;;;;;;;24.66;48.64;153856.48;1695537;84;20132;-69
2022/08/27 05:18:08;;;;;;;;;;;;;;;24.63;48.28;153848.58;1695125;84;20478;-69
2022/08/27 05:20:41;;;;;;;;;;;;;;;24.66;48.29;153856.48;1695202;84;20129;-70
2022/08/27 05:23:07;;;;;;;;;;;;;;;24.77;48.08;153885.31;1695242;84;21248;-70
2022/08/27 05:25:40;;;;;;;;;;;;;;;25.03;48.26;153952.14;1695058;84;20129;-71
2022/08/27 05:28:07;;;;;;;;;;;;;;;25.36;47.26;154034.67;1695122;84;20521;-71
2022/08/27 05:30:39;;;;;;;;;;;;;;;25.45;47.06;154058.25;1695154;84;20164;-62
2022/08/27 05:33:06;;;;;;;;;;;;;;;25.49;47.21;154066.14;1694927;84;20180;-62
2022/08/27 05:35:45;;;;;;;;;;;;;;;25.69;46.70;154118.56;1695263;84;21245;-69
2022/08/27 05:38:12;;;;;;;;;;;;;;;25.84;46.21;154155.28;1694844;84;20224;-62
2022/08/27 05:40:39;;;;;;;;;;;;;;;26.01;45.73;154199.84;1695088;84;20465;-62
2022/08/27 05:43:06;;;;;;;;;;;;;;;26.16;45.49;154237.91;1694805;84;20776;-62
2022/08/27 05:45:33;;;;;;;;;;;;;;;26.49;44.78;154319.16;1695178;84;20142;-62
2022/08/27 05:48:01;;;;;;;;;;;;;;;26.83;44.40;154405.72;1695326;84;21223;-63
2022/08/27 05:50:28;;;;;;;;;;;;;;;27.12;44.04;154480.53;1694978;84;20391;-63
2022/08/27 05:52:55;;;;;;;;;;;;;;;27.23;43.19;154506.75;1694764;84;20208;-63
2022/08/27 05:55:22;;;;;;;;;;;;;;;27.17;42.83;154492.31;1694532;84;20211;-62
2022/08/27 05:57:49;;;;;;;;;;;;;;;27.08;42.71;154470.06;1694816;84;20169;-62
2022/08/27 06:03:01;;;;;;;;;;;;;;;27.04;43.21;154459.52;1694769;84;20429;-63
2022/08/27 06:05:27;;;;;;;;;;;;;;;26.97;43.12;154441.19;1699913;83;20157;-63
2022/08/27 06:07:54;;;;;;;;;;;;;;;26.93;42.82;154430.70;1723223;83;20267;-62
2022/08/27 06:10:21;;;;;;;;;;;;;;;26.90;42.85;154422.83;1727166;82;20184;-62
2022/08/27 06:12:48;;;;;;;;;;;;;;;26.84;43.46;154408.34;1727325;83;21229;-61
2022/08/27 06:15:15;;;;;;;;;;;;;;;27.00;42.79;154449.03;1727220;83;20165;-62
2022/08/27 06:17:42;;;;;;;;;;;;;;;27.08;42.33;154470.06;1727306;82;20163;-62
2022/08/27 06:20:09;;;;;;;;;;;;;;;27.19;41.89;154497.59;1727219;83;20447;-63
2022/08/27 06:22:36;;;;;;;;;;;;;;;27.34;41.52;154535.63;1727324;82;20184;-63
2022/08/27 06:25:04;;;;;;;;;;;;;;;27.45;41.26;154564.47;1727371;83;21217;-63
2022/08/27 06:27:31;;;;;;;;;;;;;;;27.62;41.02;154606.50;1727579;83;20308;-72
2022/08/27 06:29:58;;;;;;;;;;;;;;;27.73;40.79;154635.34;1727487;82;20172;-71
2022/08/27 06:32:25;;;;;;;;;;;;;;;27.62;40.89;154606.50;1727191;83;20212;-71
2022/08/27 06:34:53;;;;;;;;;;;;;;;27.51;41.44;154577.56;1727386;82;20623;-70
2022/08/27 06:37:20;;;;;;;;;;;;;;;27.43;41.44;154557.94;1727414;82;21134;-61
2022/08/27 06:39:46;;;;;;;;;;;;;;;27.31;41.65;154527.77;1727520;83;20200;-62
2022/08/27 06:42:13;;;;;;;;;;;;;;;27.22;41.64;154505.47;1727189;83;20432;-62
2022/08/27 06:44:40;;;;;;;;;;;;;;;27.14;42.16;154485.78;1727259;83;20436;-62
2022/08/27 06:47:07;;;;;;;;;;;;;;;27.26;42.12;154514.61;1727068;83;20444;-62
2022/08/27 06:49:34;;;;;;;;;;;;;;;27.41;41.95;154552.64;1727419;83;21134;-63
2022/08/27 06:52:01;;;;;;;;;;;;;;;27.50;41.82;154574.94;1727287;82;20478;-62
2022/08/27 06:54:27;;;;;;;;;;;;;;;27.52;41.71;154580.23;1727161;83;20196;-63
2022/08/27 06:56:59;;;;;;;;;;;;;;;27.56;41.75;154590.78;1727394;83;20129;-72
2022/08/27 06:59:26;;;;;;;;;;;;;;;27.57;41.56;154593.39;1727566;83;20180;-71
2022/08/27 07:01:53;;;;;;;;;;;;;;;27.53;41.41;154582.91;1727424;82;21212;-71
2022/08/27 07:04:21;;;;;;;;;;;;;;;27.57;41.75;154594.69;1727231;83;20215;-71
2022/08/27 07:06:49;;;;;;;;;;;;;;;27.71;41.01;154630.09;1709571;82;20427;-63
2022/08/27 07:09:16;;;;;;;;;;;;;;;27.86;41.01;154668.19;1685948;85;20479;-64
2022/08/27 07:11:42;;;;;;;;;;;;;;;28.08;40.82;154721.97;1696645;84;20195;-61
2022/08/27 07:14:09;;;;;;;;;;;;;;;28.33;40.15;154785.00;1700182;84;21219;-63
2022/08/27 07:16:36;;;;;;;;;;;;;;;28.65;39.78;154866.41;1702178;84;20163;-63
2022/08/27 07:19:04;;;;;;;;;;;;;;;28.97;38.98;154949.16;1702098;84;20469;-61
2022/08/27 07:21:33;;;;;;;;;;;;;;;29.04;38.86;154966.19;1702278;84;20447;-63
2022/08/27 07:24:03;;;;;;;;;;;;;;;29.05;38.73;154968.81;1702395;84;20162;-62
2022/08/27 07:26:29;;;;;;;;;;;;;;;29.28;38.67;155026.58;1701715;84;21112;-62
2022/08/27 07:28:55;;;;;;;;;;;;;;;29.49;38.43;155079.16;1702109;84;20511;-62
2022/08/27 07:31:22;;;;;;;;;;;;;;;29.69;37.82;155130.41;1693665;84;20215;-63
2022/08/27 07:33:49;;;;;;;;;;;;;;;29.82;37.36;155163.23;1693500;84;20937;-63
2022/08/27 07:36:16;;;;;;;;;;;;;;;29.96;36.91;155198.70;1642372;87;20151;-63
2022/08/27 07:38:43;;;;;;;;;;;;;;;30.07;36.94;155227.66;1642793;87;21230;-63
2022/08/27 07:41:11;;;;;;;;;;;;;;;29.97;36.14;155201.31;1642254;87;20276;-63
2022/08/27 07:46:23;;;;;;;;;;;;;;;29.62;36.57;155113.31;1642439;87;20192;-71
2022/08/27 07:48:50;;;;;;;;;;;;;;;29.70;36.56;155134.31;1671492;85;20445;-72
2022/08/27 07:51:18;;;;;;;;;;;;;;;29.76;36.10;155147.50;1671249;86;21840;-62
2022/08/27 07:53:45;;;;;;;;;;;;;;;29.78;36.27;155152.73;1671511;86;20490;-71
2022/08/27 07:56:12;;;;;;;;;;;;;;;29.90;34.92;155184.23;1671232;84;20229;-71
2022/08/27 07:58:39;;;;;;;;;;;;;;;29.86;35.11;155175.08;1671495;86;20621;-71
2022/08/27 08:01:06;;;;;;;;;;;;;;;29.80;35.09;155157.98;1671304;86;20173;-62
2022/08/27 08:03:32;;;;;;;;;;;;;;;29.75;35.36;155144.86;1671001;85;21230;-62
2022/08/27 08:06:07;;;;;;;;;;;;;;;29.58;35.09;155102.83;1671832;85;20194;-63
2022/08/27 08:08:35;;;;;;;;;;;;;;;29.45;35.70;155071.28;1669544;85;20208;-62
2022/08/27 08:11:02;;;;;;;;;;;;;;;29.52;35.55;155088.38;1668068;84;20180;-63
2022/08/27 08:13:30;;;;;;;;;;;;;;;29.53;35.29;155089.70;1667994;86;20494;-63
2022/08/27 08:15:57;;;;;;;;;;;;;;;29.58;35.29;155102.83;1668493;84;22748;-63
2022/08/27 08:18:24;;;;;;;;;;;;;;;29.77;35.50;155150.11;1668121;86;20177;-63
2022/08/27 08:20:51;;;;;;;;;;;;;;;29.87;34.82;155176.36;1668504;86;20165;-62
2022/08/27 08:23:17;;;;;;;;;;;;;;;29.79;34.50;155155.36;1667991;84;20588;-62
2022/08/27 08:25:44;;;;;;;;;;;;;;;29.57;34.43;155100.20;1668025;86;20184;-62
2022/08/27 08:28:11;;;;;;;;;;;;;;;29.31;34.71;155034.50;1667968;86;21148;-62
2022/08/27 08:30:38;;;;;;;;;;;;;;;29.14;34.63;154992.47;1668901;86;20181;-70
2022/08/27 08:33:04;;;;;;;;;;;;;;;29.06;34.69;154970.14;1668393;86;20209;-70
2022/08/27 08:35:32;;;;;;;;;;;;;;;29.10;34.59;154981.97;1668396;86;20189;-70
2022/08/27 08:38:00;;;;;;;;;;;;;;;29.26;34.73;155022.67;1668434;84;20185;-71
2022/08/27 08:40:35;;;;;;;;;;;;;;;29.48;34.22;155076.53;1668055;86;21290;-71
2022/08/27 08:43:02;;;;;;;;;;;;;;;29.48;34.40;155076.53;1668369;86;20444;-62
2022/08/27 08:45:31;;;;;;;;;;;;;;;29.41;34.57;155060.78;1668039;86;20176;-63
2022/08/27 08:48:07;;;;;;;;;;;;;;;29.49;34.60;155079.16;1668684;86;20177;-72
2022/08/27 08:50:38;;;;;;;;;;;;;;;29.58;34.23;155102.83;1667892;86;20440;-71
2022/08/27 08:53:18;;;;;;;;;;;;;;;29.63;34.52;155114.66;1668242;84;21142;-63
2022/08/27 08:55:54;;;;;;;;;;;;;;;29.82;34.54;155163.23;1668416;86;20200;-63
2022/08/27 08:58:41;;;;;;;;;;;;;;;30.05;34.57;155221.08;1668231;86;20181;-62
2022/08/27 09:01:08;;;;;;;;;;;;;;;30.17;34.45;155252.58;1668262;84;20252;-63
2022/08/27 09:03:39;;;;;;;;;;;;;;;30.24;36.16;155271.00;1668406;86;20173;-71
2022/08/27 09:06:08;;;;;;;;;;;;;;;30.35;38.34;155298.59;1666813;84;21122;-63
2022/08/27 09:08:36;;;;;;;;;;;;;;;30.36;39.34;155299.89;1673900;84;20256;-63
2022/08/27 09:11:24;;;;;;;;;;;;;;;30.34;39.18;155294.63;1702660;84;20214;-71
2022/08/27 09:14:00;;;;;;;;;;;;;;;30.34;38.79;155294.63;1702594;84;20629;-69
2022/08/27 09:16:27;;;;;;;;;;;;;;;30.48;39.19;155331.44;1702443;84;20178;-72
2022/08/27 09:18:55;;;;;;;;;;;;;;;30.69;36.64;155384.05;1702829;84;21218;-73
2022/08/27 09:21:34;;;;;;;;;;;;;;;30.62;36.00;155366.97;1702629;84;20295;-71
2022/08/27 09:24:07;;;;;;;;;;;;;;;30.50;38.35;155335.34;1702378;83;20234;-72
2022/08/27 09:26:37;;;;;;;;;;;;;;;30.32;40.38;155290.72;1702466;84;20832;-69
2022/08/27 09:29:15;;;;;;;;;;;;;;;30.25;41.82;155272.30;1702642;84;20202;-71
2022/08/27 09:31:45;;;;;;;;;;;;;;;30.21;40.99;155263.13;1702578;84;21247;-70
2022/08/27 09:34:12;;;;;;;;;;;;;;;30.22;41.44;155265.75;1701834;84;20270;-71
2022/08/27 09:36:58;;;;;;;;;;;;;;;30.45;40.84;155323.56;1702611;84;20190;-71
2022/08/27 09:39:34;;;;;;;;;;;;;;;30.47;40.41;155328.81;1677895;83;20190;-62
2022/08/27 09:42:01;;;;;;;;;;;;;;;30.32;40.59;155289.38;1694913;83;20218;-62
2022/08/27 09:44:30;;;;;;;;;;;;;;;30.25;40.15;155272.30;1702509;84;20377;-71
2022/08/27 09:46:58;;;;;;;;;;;;;;;30.33;40.00;155292.00;1702421;84;20201;-70
2022/08/27 09:49:25;;;;;;;;;;;;;;;30.31;40.37;155288.09;1702509;83;20138;-70
2022/08/27 09:51:52;;;;;;;;;;;;;;;30.24;40.65;155271.00;1702803;84;20140;-62
2022/08/27 09:54:32;;;;;;;;;;;;;;;30.25;41.29;155273.63;1702698;84;20158;-72
2022/08/27 09:56:58;;;;;;;;;;;;;;;30.25;41.44;155272.30;1674281;84;21172;-72
2022/08/27 09:59:31;;;;;;;;;;;;;;;30.34;41.91;155294.63;1702392;84;20459;-73
2022/08/27 10:02:14;;;;;;;;;;;;;;;30.33;42.03;155292.00;1701805;84;20166;-71
2022/08/27 10:04:49;;;;;;;;;;;;;;;30.27;42.98;155277.55;1692740;84;20895;-71
2022/08/27 10:07:24;;;;;;;;;;;;;;;30.30;43.13;155286.75;1679505;85;20224;-71
2022/08/27 10:09:55;;;;;;;;;;;;;;;30.39;43.09;155307.75;1679368;84;21146;-71
2022/08/27 10:12:29;;;;;;;;;;;;;;;30.42;43.03;155315.69;1701662;82;20199;-71
2022/08/27 10:14:59;;;;;;;;;;;;;;;30.53;42.93;155344.56;1696132;84;20182;-72
2022/08/27 10:17:39;;;;;;;;;;;;;;;30.63;42.90;155368.30;1701759;84;20233;-74
2022/08/27 10:20:18;;;;;;;;;;;;;;;30.64;43.15;155370.92;1701445;84;20190;-62
2022/08/27 10:23:04;;;;;;;;;;;;;;;30.52;43.47;155341.94;1701438;84;21100;-62
2022/08/27 10:25:51;;;;;;;;;;;;;;;30.37;43.84;155302.50;1701165;84;20459;-62
2022/08/27 10:28:33;;;;;;;;;;;;;;;30.37;44.15;155302.50;1701554;84;20271;-62
2022/08/27 10:31:10;;;;;;;;;;;;;;;30.41;44.56;155313.06;1701830;84;20720;-62
2022/08/27 10:33:52;;;;;;;;;;;;;;;30.42;44.80;155315.69;1702394;84;20123;-72
2022/08/27 10:36:29;;;;;;;;;;;;;;;30.41;44.95;155314.34;1674081;84;21152;-72
2022/08/27 10:39:11;;;;;;;;;;;;;;;30.43;45.12;155319.59;1702640;84;20178;-71
2022/08/27 10:41:59;;;;;;;;;;;;;;;30.37;44.96;155303.84;1662637;85;20158;-63
2022/08/27 10:44:38;;;;;;;;;;;;;;;30.17;45.98;155252.58;1686910;85;20616;-72
2022/08/27 10:47:25;;;;;;;;;;;;;;;30.10;47.51;155234.20;1667951;85;20208;-63
2022/08/27 10:50:08;;;;;;;;;;;;;;;30.14;49.31;155246.05;1686716;85;21100;-63
2022/08/27 10:52:44;;;;;;;;;;;;;;;30.19;50.64;155257.88;1686681;85;20143;-62
2022/08/27 10:55:19;;;;;;;;;;;;;;;30.00;51.63;155210.53;1687095;84;20187;-62
2022/08/27 10:57:49;;;;;;;;;;;;;;;29.73;52.58;155142.25;1687212;85;20143;-62
2022/08/27 11:00:20;;;;;;;;;;;;;;;29.50;52.91;155081.78;1686747;85;20219;-61
2022/08/27 11:02:56;;;;;;;;;;;;;;;29.29;53.26;155029.20;1687422;85;20332;-73
2022/08/27 11:05:26;;;;;;;;;;;;;;;29.23;53.23;155013.47;1687930;84;20206;-72
2022/08/27 11:08:02;;;;;;;;;;;;;;;29.14;52.86;154992.47;1708489;84;20173;-72
2022/08/27 11:10:30;;;;;;;;;;;;;;;29.24;52.12;155016.08;1679029;85;20215;-63
2022/08/27 11:12:59;;;;;;;;;;;;;;;29.42;51.42;155062.12;1663273;86;20216;-62
2022/08/27 11:15:34;;;;;;;;;;;;;;;29.37;51.08;155050.25;1677909;84;21263;-72
2022/08/27 11:18:10;;;;;;;;;;;;;;;29.12;51.24;154987.22;1680286;85;20219;-72
2022/08/27 11:20:58;;;;;;;;;;;;;;;28.99;51.49;154953.06;1663336;86;20205;-72
2022/08/27 11:23:29;;;;;;;;;;;;;;;29.11;50.60;154984.59;1678245;85;20191;-71
2022/08/27 11:26:03;;;;;;;;;;;;;;;29.26;50.53;155021.33;1679784;85;20311;-63
2022/08/27 11:28:43;;;;;;;;;;;;;;;29.44;49.95;155067.38;1663032;86;21132;-62
2022/08/27 11:31:26;;;;;;;;;;;;;;;29.57;49.73;155100.20;1678093;85;20212;-73
2022/08/27 11:34:06;;;;;;;;;;;;;;;29.63;49.50;155115.95;1677878;84;20216;-70
2022/08/27 11:37:01;;;;;;;;;;;;;;;29.54;49.75;155092.33;1678874;85;20212;-62
2022/08/27 11:40:07;;;;;;;;;;;;;;;29.50;49.86;155081.78;1663126;85;20216;-72
2022/08/27 11:42:56;;;;;;;;;;;;;;;29.50;49.84;155081.78;1677403;85;21221;-72
2022/08/27 11:45:33;;;;;;;;;;;;;;;29.56;49.58;155097.58;1679640;84;20232;-72
2022/08/27 11:48:01;;;;;;;;;;;;;;;29.59;49.23;155105.45;1679088;85;20672;-74
2022/08/27 11:50:29;;;;;;;;;;;;;;;29.51;49.25;155084.41;1662374;86;20212;-73
2022/08/27 11:52:59;;;;;;;;;;;;;;;29.39;49.72;155055.50;1677081;85;20235;-73
2022/08/27 11:55:32;;;;;;;;;;;;;;;29.27;49.99;155023.95;1678566;85;21233;-72
2022/08/27 11:58:08;;;;;;;;;;;;;;;29.34;50.47;155041.03;1662840;86;20252;-72
2022/08/27 12:00:39;;;;;;;;;;;;;;;29.41;50.07;155059.50;1671047;84;20299;-71
2022/08/27 12:03:22;;;;;;;;;;;;;;;29.51;50.35;155085.73;1678098;85;20483;-72
2022/08/27 12:05:55;;;;;;;;;;;;;;;29.71;49.73;155135.66;1675747;85;20655;-73
2022/08/27 12:08:26;;;;;;;;;;;;;;;29.75;49.22;155144.86;1672422;84;21812;-71
2022/08/27 12:10:59;;;;;;;;;;;;;;;29.69;49.72;155131.69;1701248;83;20165;-72
2022/08/27 12:13:51;;;;;;;;;;;;;;;29.62;50.12;155113.31;1681457;85;20178;-71
2022/08/27 12:16:42;;;;;;;;;;;;;;;29.61;50.67;155110.70;1698878;84;20907;-71
2022/08/27 12:19:37;;;;;;;;;;;;;;;29.70;50.61;155134.31;1701153;83;20191;-73
2022/08/27 12:23:38;;;;;;;;;;;;;;;29.75;50.57;155144.86;1655714;84;20900;-72
2022/08/27 12:25:06;;;;;;;;;;;;;;;29.76;50.17;155147.50;1694929;84;20442;-72
2022/08/27 12:27:33;;;;;;;;;;;;;;;29.61;50.13;155110.70;1701151;83;20198;-71
2022/08/27 12:30:18;;;;;;;;;;;;;;;29.48;50.75;155076.53;1681775;84;20529;-71
2022/08/27 12:32:46;;;;;;;;;;;;;;;29.48;50.84;155077.87;1699022;84;20174;-72
2022/08/27 12:35:27;;;;;;;;;;;;;;;29.54;50.57;155092.33;1701147;84;21149;-62
2022/08/27 12:38:07;;;;;;;;;;;;;;;29.58;51.24;155102.83;1681593;84;20224;-62
2022/08/27 12:40:42;;;;;;;;;;;;;;;29.61;51.26;155110.70;1699351;84;20215;-63
2022/08/27 12:43:16;;;;;;;;;;;;;;;29.59;51.29;155105.45;1701294;83;20399;-72
2022/08/27 12:45:46;;;;;;;;;;;;;;;29.45;51.34;155071.28;1681789;85;20134;-62
2022/08/27 12:48:14;;;;;;;;;;;;;;;29.29;51.96;155029.20;1699510;84;22055;-61
2022/08/27 12:50:41;;;;;;;;;;;;;;;29.28;52.10;155026.58;1701056;84;20307;-62
2022/08/27 12:53:31;;;;;;;;;;;;;;;29.34;51.78;155041.03;1681919;85;20127;-62
2022/08/27 12:56:02;;;;;;;;;;;;;;;29.43;51.63;155066.03;1699234;84;20170;-62
2022/08/27 12:58:41;;;;;;;;;;;;;;;29.56;51.15;155098.86;1701065;83;20218;-62
2022/08/27 13:01:31;;;;;;;;;;;;;;;29.51;51.26;155084.41;1681983;84;21119;-62